Time,TemperatureF,DewpointF,PressureIn,WindDirection,WindDirectionDegrees,WindSpeedMPH,WindSpeedGustMPH,Humidity,HourlyPrecipIn,Conditions,Clouds,dailyrainin,SoftwareType,DateUTC
2013-04-04 00:03:00,30.0,11.0,30.17,West,270,0.0,2.0,44,0.00,,,0.00,,2013-04-04 04:03:00,
2013-04-04 00:12:00,30.0,11.0,30.17,West,270,0.0,2.0,44,0.00,,,0.00,,2013-04-04 04:12:00,
2013-04-04 00:23:00,30.0,11.0,30.18,NW,315,0.0,6.0,45,0.00,,,0.00,,2013-04-04 04:23:00,
2013-04-04 00:33:00,30.0,12.0,30.18,NW,315,0.0,3.0,46,0.00,,,0.00,,2013-04-04 04:33:00,
2013-04-04 00:43:00,30.0,12.0,30.18,NW,315,0.0,3.0,46,0.00,,,0.00,,2013-04-04 04:43:00,
2013-04-04 00:53:00,29.0,11.0,30.18,WNW,293,0.0,6.0,47,0.00,,,0.00,,2013-04-04 04:53:00,
2013-04-04 01:02:00,30.0,13.0,30.18,NNE,23,3.0,7.0,48,0.00,,,0.00,,2013-04-04 05:02:00,
2013-04-04 01:13:00,30.0,13.0,30.18,NNE,23,3.0,7.0,48,0.00,,,0.00,,2013-04-04 05:13:00,
2013-04-04 01:23:00,29.0,12.0,30.19,West,270,3.0,6.0,48,0.00,,,0.00,,2013-04-04 05:23:00,
2013-04-04 01:32:00,29.0,12.0,30.19,NW,315,0.0,6.0,48,0.00,,,0.00,,2013-04-04 05:32:00,
2013-04-04 01:42:00,29.0,12.0,30.19,NW,315,0.0,6.0,48,0.00,,,0.00,,2013-04-04 05:42:00,
2013-04-04 01:53:00,29.0,12.0,30.18,NW,305,1.0,4.0,49,0.00,,,0.00,,2013-04-04 05:53:00,
2013-04-04 02:02:00,29.0,12.0,30.19,West,270,0.0,6.0,49,0.00,,,0.00,,2013-04-04 06:02:00,
2013-04-04 02:12:00,29.0,12.0,30.19,West,270,0.0,6.0,49,0.00,,,0.00,,2013-04-04 06:12:00,
2013-04-04 02:22:00,29.0,13.0,30.18,NNW,338,4.0,8.0,50,0.00,,,0.00,,2013-04-04 06:22:00,
2013-04-04 02:32:00,29.0,13.0,30.17,NNE,23,0.0,7.0,50,0.00,,,0.00,,2013-04-04 06:32:00,
2013-04-04 02:42:00,29.0,13.0,30.17,NNE,23,0.0,7.0,50,0.00,,,0.00,,2013-04-04 06:42:00,
2013-04-04 02:52:00,29.0,13.0,30.17,North,349,5.0,7.0,51,0.00,,,0.00,,2013-04-04 06:52:00,
2013-04-04 03:02:00,29.0,14.0,30.17,NNE,23,2.0,4.0,52,0.00,,,0.00,,2013-04-04 07:02:00,
2013-04-04 03:12:00,29.0,14.0,30.17,NNE,23,2.0,4.0,52,0.00,,,0.00,,2013-04-04 07:12:00,
2013-04-04 03:22:00,29.0,14.0,30.17,NW,305,5.0,5.0,52,0.00,,,0.00,,2013-04-04 07:22:00,
2013-04-04 03:32:00,29.0,14.0,30.16,North,0,4.0,4.0,53,0.00,,,0.00,,2013-04-04 07:32:00,
2013-04-04 03:43:00,29.0,14.0,30.16,North,0,4.0,4.0,53,0.00,,,0.00,,2013-04-04 07:43:00,
2013-04-04 03:52:00,29.0,14.0,30.16,North,0,0.0,4.0,53,0.00,,,0.00,,2013-04-04 07:52:00,
2013-04-04 04:03:00,29.0,14.0,30.17,NNW,338,0.0,4.0,53,0.00,,,0.00,,2013-04-04 08:03:00,
2013-04-04 04:12:00,29.0,14.0,30.17,NNW,338,0.0,4.0,53,0.00,,,0.00,,2013-04-04 08:12:00,
2013-04-04 04:23:00,28.0,14.0,30.17,ENE,68,0.0,2.0,54,0.00,,,0.00,,2013-04-04 08:23:00,
2013-04-04 04:32:00,28.0,14.0,30.16,NNW,338,0.0,0.0,54,0.00,,,0.00,,2013-04-04 08:32:00,
2013-04-04 04:43:00,28.0,14.0,30.16,NNW,338,0.0,0.0,54,0.00,,,0.00,,2013-04-04 08:43:00,
2013-04-04 04:52:00,28.0,14.0,30.18,NW,315,0.0,0.0,54,0.00,,,0.00,,2013-04-04 08:52:00,
2013-04-04 05:03:00,27.0,13.0,30.20,West,270,0.0,0.0,54,0.00,,,0.00,,2013-04-04 09:03:00,
2013-04-04 05:12:00,27.0,13.0,30.20,West,270,0.0,0.0,54,0.00,,,0.00,,2013-04-04 09:12:00,
2013-04-04 05:22:00,27.0,13.0,30.19,WNW,293,0.0,0.0,54,0.00,,,0.00,,2013-04-04 09:22:00,
2013-04-04 05:34:00,27.0,13.0,30.20,WNW,293,0.0,0.0,55,0.00,,,0.00,,2013-04-04 09:34:00,
2013-04-04 05:43:00,27.0,13.0,30.20,WNW,293,0.0,0.0,55,0.00,,,0.00,,2013-04-04 09:43:00,
2013-04-04 05:53:00,27.0,13.0,30.22,WNW,293,0.0,0.0,55,0.00,,,0.00,,2013-04-04 09:53:00,
2013-04-04 06:04:00,26.0,13.0,30.23,WNW,293,0.0,0.0,57,0.00,,,0.00,,2013-04-04 10:04:00,
2013-04-04 06:12:00,26.0,13.0,30.23,WNW,293,0.0,0.0,57,0.00,,,0.00,,2013-04-04 10:12:00,
2013-04-04 06:24:00,26.0,13.0,30.24,WNW,293,0.0,0.0,57,0.00,,,0.00,,2013-04-04 10:24:00,
2013-04-04 06:33:00,26.0,13.0,30.25,WNW,293,0.0,0.0,58,0.00,,,0.00,,2013-04-04 10:33:00,
2013-04-04 06:42:00,26.0,13.0,30.25,WNW,293,0.0,0.0,58,0.00,,,0.00,,2013-04-04 10:42:00,
2013-04-04 06:53:00,26.0,14.0,30.25,WNW,293,0.0,0.0,59,0.00,,,0.00,,2013-04-04 10:53:00,
2013-04-04 07:03:00,26.0,14.0,30.26,WNW,293,0.0,0.0,59,0.00,,,0.00,,2013-04-04 11:03:00,
2013-04-04 07:12:00,26.0,14.0,30.26,WNW,293,0.0,0.0,59,0.00,,,0.00,,2013-04-04 11:12:00,
2013-04-04 07:22:00,26.0,14.0,30.26,WNW,293,0.0,0.0,59,0.00,,,0.00,,2013-04-04 11:22:00,
2013-04-04 07:33:00,27.0,15.0,30.27,WNW,293,0.0,0.0,60,0.00,,,0.00,,2013-04-04 11:33:00,
2013-04-04 07:42:00,27.0,15.0,30.27,WNW,293,0.0,0.0,60,0.00,,,0.00,,2013-04-04 11:42:00,
2013-04-04 07:53:00,27.0,15.0,30.28,WNW,293,0.0,0.0,60,0.00,,,0.00,,2013-04-04 11:53:00,
2013-04-04 08:03:00,28.0,16.0,30.28,West,270,0.0,0.0,59,0.00,,,0.00,,2013-04-04 12:03:00,
2013-04-04 08:12:00,28.0,16.0,30.28,West,270,0.0,0.0,59,0.00,,,0.00,,2013-04-04 12:12:00,
2013-04-04 08:22:00,29.0,16.0,30.29,West,270,0.0,0.0,59,0.00,,,0.00,,2013-04-04 12:22:00,
2013-04-04 08:33:00,31.0,18.0,30.30,West,270,0.0,0.0,58,0.00,,,0.00,,2013-04-04 12:33:00,
2013-04-04 08:43:00,31.0,18.0,30.30,West,270,0.0,0.0,58,0.00,,,0.00,,2013-04-04 12:43:00,
2013-04-04 08:52:00,32.0,19.0,30.29,West,270,0.0,0.0,57,0.00,,,0.00,,2013-04-04 12:52:00,
2013-04-04 09:03:00,33.0,19.0,30.29,West,270,0.0,0.0,55,0.00,,,0.00,,2013-04-04 13:03:00,
2013-04-04 09:12:00,33.0,19.0,30.29,West,270,0.0,0.0,55,0.00,,,0.00,,2013-04-04 13:12:00,
2013-04-04 09:22:00,34.0,19.0,30.29,West,270,0.0,2.0,54,0.00,,,0.00,,2013-04-04 13:22:00,
2013-04-04 09:33:00,36.0,20.0,30.28,West,270,0.0,0.0,51,0.00,,,0.00,,2013-04-04 13:33:00,
2013-04-04 09:42:00,36.0,20.0,30.28,West,270,0.0,0.0,51,0.00,,,0.00,,2013-04-04 13:42:00,
2013-04-04 09:52:00,36.0,19.0,30.28,NE,45,0.0,0.0,50,0.00,,,0.00,,2013-04-04 13:52:00,
2013-04-04 10:03:00,38.0,20.0,30.27,WNW,293,0.0,0.0,48,0.00,,,0.00,,2013-04-04 14:03:00,
2013-04-04 10:13:00,38.0,20.0,30.27,WNW,293,0.0,0.0,48,0.00,,,0.00,,2013-04-04 14:13:00,
2013-04-04 10:22:00,38.0,19.0,30.27,NW,315,0.0,4.0,46,0.00,,,0.00,,2013-04-04 14:22:00,
2013-04-04 10:33:00,40.0,19.0,30.26,North,0,6.0,6.0,43,0.00,,,0.00,,2013-04-04 14:33:00,
2013-04-04 10:43:00,40.0,19.0,30.26,North,0,6.0,6.0,43,0.00,,,0.00,,2013-04-04 14:43:00,
2013-04-04 10:52:00,41.0,19.0,30.26,West,269,3.0,6.0,41,0.00,,,0.00,,2013-04-04 14:52:00,
2013-04-04 11:03:00,42.0,20.0,30.25,NE,45,0.0,3.0,41,0.00,,,0.00,,2013-04-04 15:03:00,
2013-04-04 11:12:00,42.0,20.0,30.25,NE,45,0.0,3.0,41,0.00,,,0.00,,2013-04-04 15:12:00,
2013-04-04 11:23:00,43.0,20.0,30.25,WSW,248,0.0,4.0,39,0.00,,,0.00,,2013-04-04 15:23:00,
2013-04-04 11:33:00,44.0,20.0,30.24,NE,45,0.0,0.0,38,0.00,,,0.00,,2013-04-04 15:33:00,
2013-04-04 11:43:00,44.0,20.0,30.24,NE,45,0.0,0.0,38,0.00,,,0.00,,2013-04-04 15:43:00,
2013-04-04 11:53:00,45.0,20.0,30.24,NW,315,0.0,1.0,37,0.00,,,0.00,,2013-04-04 15:53:00,
2013-04-04 12:03:00,47.0,21.0,30.24,NW,315,0.0,0.0,35,0.00,,,0.00,,2013-04-04 16:03:00,
2013-04-04 12:12:00,47.0,21.0,30.24,NW,315,0.0,0.0,35,0.00,,,0.00,,2013-04-04 16:12:00,
2013-04-04 12:24:00,47.0,20.0,30.24,WSW,248,0.0,6.0,34,0.00,,,0.00,,2013-04-04 16:24:00,
2013-04-04 12:33:00,50.0,22.0,30.22,WNW,293,0.0,0.0,33,0.00,,,0.00,,2013-04-04 16:33:00,
2013-04-04 12:42:00,50.0,22.0,30.22,WNW,293,0.0,0.0,33,0.00,,,0.00,,2013-04-04 16:42:00,
2013-04-04 12:53:00,54.0,24.0,30.22,WSW,248,0.0,0.0,31,0.00,,,0.00,,2013-04-04 16:53:00,
2013-04-04 13:03:00,66.0,28.0,30.21,West,270,2.0,2.0,24,0.00,,,0.00,,2013-04-04 17:03:00,
2013-04-04 13:13:00,66.0,28.0,30.21,West,270,2.0,2.0,24,0.00,,,0.00,,2013-04-04 17:13:00,
2013-04-04 13:23:00,68.0,30.0,30.21,SW,225,4.0,4.0,24,0.00,,,0.00,,2013-04-04 17:23:00,
2013-04-04 13:33:00,71.0,30.0,30.20,WSW,248,5.0,5.0,22,0.00,,,0.00,,2013-04-04 17:33:00,
2013-04-04 13:43:00,71.0,30.0,30.20,WSW,248,5.0,5.0,22,0.00,,,0.00,,2013-04-04 17:43:00,
2013-04-04 13:52:00,72.0,30.0,30.20,WSW,248,0.0,5.0,21,0.00,,,0.00,,2013-04-04 17:52:00,
2013-04-04 14:02:00,76.0,31.0,30.19,WSW,248,3.0,3.0,19,0.00,,,0.00,,2013-04-04 18:02:00,
2013-04-04 14:12:00,76.0,31.0,30.19,WSW,248,3.0,3.0,19,0.00,,,0.00,,2013-04-04 18:12:00,
2013-04-04 14:23:00,76.0,31.0,30.18,WSW,248,6.0,6.0,19,0.00,,,0.00,,2013-04-04 18:23:00,
2013-04-04 14:32:00,74.0,28.0,30.18,WSW,248,0.0,0.0,18,0.00,,,0.00,,2013-04-04 18:32:00,
2013-04-04 14:43:00,74.0,28.0,30.18,WSW,248,0.0,0.0,18,0.00,,,0.00,,2013-04-04 18:43:00,
2013-04-04 14:52:00,68.0,25.0,30.17,WSW,248,0.0,2.0,20,0.00,,,0.00,,2013-04-04 18:52:00,
2013-04-04 15:02:00,65.0,23.0,30.16,WSW,248,3.0,3.0,20,0.00,,,0.00,,2013-04-04 19:02:00,
2013-04-04 15:12:00,65.0,23.0,30.16,WSW,248,3.0,3.0,20,0.00,,,0.00,,2013-04-04 19:12:00,
2013-04-04 15:22:00,59.0,22.0,30.15,WSW,248,0.0,7.0,24,0.00,,,0.00,,2013-04-04 19:22:00,
2013-04-04 15:33:00,69.0,29.0,30.14,WSW,248,3.0,6.0,22,0.00,,,0.00,,2013-04-04 19:33:00,
2013-04-04 15:42:00,69.0,29.0,30.14,WSW,248,3.0,6.0,22,0.00,,,0.00,,2013-04-04 19:42:00,
2013-04-04 15:52:00,70.0,28.0,30.14,WSW,248,6.0,6.0,21,0.00,,,0.00,,2013-04-04 19:52:00,
2013-04-04 16:04:00,70.0,29.0,30.13,WSW,248,4.0,4.0,22,0.00,,,0.00,,2013-04-04 20:04:00,
2013-04-04 16:12:00,70.0,29.0,30.13,WSW,248,4.0,4.0,22,0.00,,,0.00,,2013-04-04 20:12:00,
2013-04-04 16:23:00,66.0,26.0,30.12,WSW,248,3.0,6.0,22,0.00,,,0.00,,2013-04-04 20:23:00,
2013-04-04 16:32:00,59.0,23.0,30.12,WSW,248,5.0,7.0,25,0.00,,,0.00,,2013-04-04 20:32:00,
2013-04-04 16:42:00,59.0,23.0,30.12,WSW,248,5.0,7.0,25,0.00,,,0.00,,2013-04-04 20:42:00,
2013-04-04 16:52:00,58.0,22.0,30.11,WSW,248,0.0,0.0,25,0.00,,,0.00,,2013-04-04 20:52:00,
2013-04-04 17:02:00,58.0,22.0,30.11,West,270,2.0,5.0,25,0.00,,,0.00,,2013-04-04 21:02:00,
2013-04-04 17:12:00,58.0,22.0,30.11,West,270,2.0,5.0,25,0.00,,,0.00,,2013-04-04 21:12:00,
2013-04-04 17:22:00,56.0,22.0,30.11,West,270,0.0,5.0,26,0.00,,,0.00,,2013-04-04 21:22:00,
2013-04-04 17:33:00,54.0,22.0,30.11,SW,225,2.0,5.0,29,0.00,,,0.00,,2013-04-04 21:33:00,
2013-04-04 17:43:00,54.0,22.0,30.11,SW,225,2.0,5.0,29,0.00,,,0.00,,2013-04-04 21:43:00,
2013-04-04 17:53:00,56.0,24.0,30.11,WSW,248,0.0,6.0,29,0.00,,,0.00,,2013-04-04 21:53:00,
2013-04-04 18:04:00,59.0,26.0,30.10,West,270,0.0,6.0,28,0.00,,,0.00,,2013-04-04 22:04:00,
2013-04-04 18:12:00,59.0,26.0,30.10,West,270,0.0,6.0,28,0.00,,,0.00,,2013-04-04 22:12:00,
2013-04-04 18:23:00,56.0,23.0,30.10,SSW,203,0.0,4.0,28,0.00,,,0.00,,2013-04-04 22:23:00,
2013-04-04 18:33:00,48.0,22.0,30.10,WSW,248,0.0,4.0,35,0.00,,,0.00,,2013-04-04 22:33:00,
2013-04-04 18:42:00,48.0,22.0,30.10,WSW,248,0.0,4.0,35,0.00,,,0.00,,2013-04-04 22:42:00,
2013-04-04 18:53:00,47.0,22.0,30.10,SW,225,0.0,0.0,37,0.00,,,0.00,,2013-04-04 22:53:00,
2013-04-04 19:03:00,44.0,22.0,30.10,South,180,3.0,3.0,41,0.00,,,0.00,,2013-04-04 23:03:00,
2013-04-04 19:12:00,44.0,22.0,30.10,South,180,3.0,3.0,41,0.00,,,0.00,,2013-04-04 23:12:00,
2013-04-04 19:22:00,43.0,22.0,30.10,SSW,203,1.0,3.0,43,0.00,,,0.00,,2013-04-04 23:22:00,
2013-04-04 19:32:00,42.0,22.0,30.11,SW,225,0.0,5.0,45,0.00,,,0.00,,2013-04-04 23:32:00,
2013-04-04 19:42:00,42.0,22.0,30.11,SW,225,0.0,5.0,45,0.00,,,0.00,,2013-04-04 23:42:00,
2013-04-04 19:52:00,41.0,22.0,30.11,SSE,158,2.0,5.0,46,0.00,,,0.00,,2013-04-04 23:52:00,
2013-04-04 20:02:00,40.0,22.0,30.11,WNW,293,0.0,0.0,49,0.00,,,0.00,,2013-04-05 00:02:00,
2013-04-04 20:12:00,40.0,22.0,30.11,WNW,293,0.0,0.0,49,0.00,,,0.00,,2013-04-05 00:12:00,
2013-04-04 20:22:00,39.0,22.0,30.11,SSE,158,0.0,3.0,51,0.00,,,0.00,,2013-04-05 00:22:00,
2013-04-04 20:33:00,38.0,23.0,30.12,SSW,203,0.0,0.0,55,0.00,,,0.00,,2013-04-05 00:33:00,
2013-04-04 20:42:00,38.0,23.0,30.12,SSW,203,0.0,0.0,55,0.00,,,0.00,,2013-04-05 00:42:00,
2013-04-04 20:52:00,38.0,25.0,30.11,SW,225,0.0,2.0,58,0.00,,,0.00,,2013-04-05 00:52:00,
2013-04-04 21:02:00,37.0,24.0,30.11,WNW,293,4.0,4.0,60,0.00,,,0.00,,2013-04-05 01:02:00,
2013-04-04 21:12:00,37.0,24.0,30.11,WNW,293,4.0,4.0,60,0.00,,,0.00,,2013-04-05 01:12:00,
2013-04-04 21:22:00,37.0,25.0,30.11,WSW,248,0.0,3.0,62,0.00,,,0.00,,2013-04-05 01:22:00,
2013-04-04 21:32:00,37.0,26.0,30.11,SSW,203,0.0,2.0,63,0.00,,,0.00,,2013-04-05 01:32:00,
2013-04-04 21:42:00,37.0,26.0,30.11,SSW,203,0.0,2.0,63,0.00,,,0.00,,2013-04-05 01:42:00,
2013-04-04 21:52:00,36.0,25.0,30.11,SW,225,0.0,4.0,64,0.00,,,0.00,,2013-04-05 01:52:00,
2013-04-04 22:03:00,36.0,26.0,30.10,WSW,248,0.0,3.0,66,0.00,,,0.00,,2013-04-05 02:03:00,
2013-04-04 22:12:00,36.0,26.0,30.10,WSW,248,0.0,3.0,66,0.00,,,0.00,,2013-04-05 02:12:00,
2013-04-04 22:22:00,36.0,26.0,30.10,WSW,248,0.0,0.0,67,0.00,,,0.00,,2013-04-05 02:22:00,
2013-04-04 22:32:00,36.0,27.0,30.08,SW,225,0.0,2.0,69,0.00,,,0.00,,2013-04-05 02:32:00,
2013-04-04 22:42:00,36.0,27.0,30.08,SW,225,0.0,2.0,69,0.00,,,0.00,,2013-04-05 02:42:00,
2013-04-04 22:52:00,36.0,27.0,30.08,SSE,158,0.0,2.0,70,0.00,,,0.00,,2013-04-05 02:52:00,
2013-04-04 23:02:00,36.0,28.0,30.08,SW,225,1.0,3.0,71,0.00,,,0.00,,2013-04-05 03:02:00,
2013-04-04 23:12:00,36.0,28.0,30.08,SW,225,1.0,3.0,71,0.00,,,0.00,,2013-04-05 03:12:00,
2013-04-04 23:22:00,36.0,28.0,30.08,SSE,158,4.0,4.0,72,0.00,,,0.00,,2013-04-05 03:22:00,
2013-04-04 23:32:00,35.0,27.0,30.06,SW,225,0.0,0.0,73,0.00,,,0.00,,2013-04-05 03:32:00,
2013-04-04 23:43:00,35.0,27.0,30.06,SW,225,0.0,0.0,73,0.00,,,0.00,,2013-04-05 03:43:00,
2013-04-04 23:53:00,35.0,28.0,30.06,SW,225,0.0,2.0,74,0.00,,,0.00,,2013-04-05 03:53:00,